KCRPKTME

Guest
Details From KCRP - CORPUS CHRISTI INTL
To KTME - Houston Executive
Flight Number -
Tags decoded
Created
Modified
Stats Distance 187 nm / 347 km
Max Altitude 0 ft / 0 m
Waypoints 4
Social Downloads 0
Likes 0
Share VATSIM

Download

Looking for another format? Having issues loading an existing format? Contact us
Advertisement - Login to hide

Notes

Requested: KCRP CRP LMEDA ALIEF BIGTX HYDRL BELLR TSHRT TCHDN KTME Unmatched points: LMEDA ALIEF BIGTX HYDRL BELLR TSHRT

Route

KCRP CRP TCHDN KTME

ID Type Via Altitude Latitude Longitude Leg Dist Tot Dist Heading (true) Name
O KCRP APT - 0 ft / 0 m 27.77044˚ -97.50074˚ - 0 nm - CORPUS CHRISTI INTL
CRP VOR - 0 ft / 0 m 27.90378˚ -97.44489˚ 8 nm 8 nm 20° / 20° CORPUS CHRISTI VORTAC
TCHDN FIX - 0 ft / 0 m 29.63276˚ -95.38594˚ 150 nm 158 nm 46° / 47° -
O KTME APT - 0 ft / 0 m 29.80502˚ -95.89789˚ 28 nm 187 nm 291° / 291° Houston Executive

Altitude Profile

Advertisement - Login to hide

Weather


0- 5 10 15 20 25 30 35+ Temperature / ° C

Clouds and Precipitation
Forecast for 2018-05-27 12:00 UTC. Updated an hour ago

Ground ~20,000 ft ~40,000 ft Winds

KCRP

Details ICAO KCRP (CRP)
Name CORPUS CHRISTI INTL
Region United States
Timezone America/Chicago (UTC-5.0)
Stats Elevation 44 ft / 13 m (AMSL)
Location 27.770442° -97.500737°
Runways 2
Magnetic Variation 3.681° E

METAR

KCRP 270951Z 16005KT 10SM FEW015 FEW250 23/23 A2975 RMK AO2 SLP074 T02280228 $

Decode

TAF

KCRP 270529Z 2706/2806 15006KT P6SM FEW018 FM271000 VRB03KT 6SM BR SCT012 TEMPO 2710/2713 4SM BR FM271400 19008KT P6SM SCT025 FM271900 14011G16KT P6SM FEW045 FM280100 15007KT P6SM FEW035

Decode

Departure Runways

ID Width Length Bearing (true) Bearing (mag) Surface Threshold Offset Overrun Length
13 150 ft / 46 m 7,516 ft / 2,291 m 135.96° 132.28° Asphalt 0 ft / 0 m 0 ft / 0 m
17 150 ft / 46 m 6,102 ft / 1,860 m 179.12° 175.44° Asphalt 0 ft / 0 m 0 ft / 0 m
31 150 ft / 46 m 7,516 ft / 2,291 m 315.97° 312.29° Asphalt 0 ft / 0 m 0 ft / 0 m
35 150 ft / 46 m 6,102 ft / 1,860 m 359.12° 355.44° Asphalt 0 ft / 0 m 0 ft / 0 m

KTME

Details ICAO KTME
Name Houston Executive
Region United States
Timezone America/Chicago (UTC-5.0)
Stats Elevation 168 ft / 51 m (AMSL)
Location 29.805020° -95.897887°
Runways 1
Magnetic Variation 2.748° E

METAR

KTME 271015Z AUTO 00000KT 10SM 21/19 A2980 RMK AO2

Decode

TAF

Not found

Destination Runways

ID Width Length Bearing (true) Bearing (mag) Surface Threshold Offset Overrun Length
18 98 ft / 30 m 6,617 ft / 2,017 m 179.26° 176.51° Asphalt 0 ft / 0 m 0 ft / 0 m
36 98 ft / 30 m 6,617 ft / 2,017 m 359.26° 356.51° Asphalt 1,558 ft / 475 m 0 ft / 0 m

Popular Alternatives